Arnold, Maryland
Current Conditions -  °F | °C
As of 3:54 PM on Thursday 23 Oct 2014 (Local Time) from KNAK Reporting Station
Overcast Overcast  
Wind Chill: 62°   Ceiling: 4600
Heat Index: 62°   Visibility: 10mi
Dew Point: 47°   Wind: 14mph
Humidity: 58%   Direction: 320°NW
Pressure: 29.82"   Gusts: 21mph
Location:  39.03°N, 76.51°W
Report Text: KNAK 231954Z AUTO 32012G18KT 10SM OVC046 17/08 A2982 RMK AO2 SLP099 T01670083
Loading
Personal Weather Stations






























Interactive Weather Map New forecast layout! Learn more

10-Day Weather Forecast

Advertisements
Track Severe Weather on mobile